M/T Filos — 9HQB8 — position and weather

sailwx.info

Track history (hours):
 
Tides and Currents Weather Stations Pressure Air Temp Water Temp Dewpoint Dewpoint Depression Visibility Wind Speed Wind Dir Waves Ship Positions

M/T Filos

Last reported at 2015-Jan-28 23:33 UTC. Time now 2015-Jan-29 00:17 UTC.
Position N 39°46' E 002°22'.

Length 180 m; draft 7.4 m.

Type: Tanker. MMSI: 224561000.

Date/timePositionNaut miles runAvg speedWind from/ knotsBaromVisibWave heightAir tempDewpointWater temp
2015-Jan-28 23:33N 39°46' E 002°22'1211.7
2015-Jan-28 22:33N 39°40' E 002°10'1211.8
2015-Jan-28 21:33N 39°33' E 001°58'1111.2
2015-Jan-28 20:33N 39°26' E 001°46'1111.0
2015-Jan-28 19:33N 39°19' E 001°34'1110.9
2015-Jan-28 18:31N 39°13' E 001°23'9710.8
2015-Jan-28 09:31N 38°04' W 000°05'1210.5
2015-Jan-28 08:23N 37°54' W 000°13'910.0
2015-Jan-28 07:30N 37°47' W 000°19'1010.2
2015-Jan-28 06:33N 37°39' W 000°26'1010.2
2015-Jan-28 05:33N 37°31' W 000°34'1010.2
2015-Jan-28 04:33N 37°24' W 000°44'1010.1
2015-Jan-28 03:33N 37°17' W 000°53'1110.7
2015-Jan-28 02:32N 37°10' W 001°03'1511.8
2015-Jan-28 01:15N 37°00' W 001°18'19611.0
2015-Jan-27 07:28N 36°02' W 005°10'1011.2
2015-Jan-27 06:33N 36°04' W 005°23'7 7.0
2015-Jan-27 05:31N 35°58' W 005°27'15711.2
2015-Jan-26 15:29N 36°22' W 008°40'1111.7
2015-Jan-26 14:33N 36°25' W 008°53'2311.4
2015-Jan-26 12:32N 36°31' W 009°21'3911.3
2015-Jan-26 09:04N 37°06' W 009°43'711.5
2015-Jan-26 08:26N 37°13' W 009°45'1011.3
2015-Jan-26 07:34N 37°22' W 009°48'1211.6
2015-Jan-26 06:33N 37°34' W 009°51'1211.9
2015-Jan-26 05:33N 37°45' W 009°55'1211.9
2015-Jan-26 04:33N 37°57' W 009°58'1211.7
2015-Jan-26 03:32N 38°08' W 010°02'1211.9
2015-Jan-26 02:33N 38°20' W 010°05'1212.1
2015-Jan-26 01:33N 38°32' W 010°08'1212.3
2015-Jan-26 00:34N 38°44' W 010°11'1812.4
2015-Jan-25 23:08N 39°01' W 010°11'  
2015-Jan-22 17:25N 50°32' E 000°17'1113.4
2015-Jan-22 16:34N 50°35' E 000°34'1312.5
2015-Jan-22 15:33N 50°43' E 000°49'1211.2
2015-Jan-22 14:28N 50°51' E 001°04'9 9.7
2015-Jan-22 13:30N 50°58' E 001°14'8 8.5
2015-Jan-22 12:34N 51°03' E 001°24'9 9.5
2015-Jan-22 11:34N 51°09' E 001°36'1111.5
2015-Jan-22 10:34N 51°17' E 001°49'1211.6
2015-Jan-22 09:33N 51°24' E 002°04'1111.0
2015-Jan-22 08:33N 51°21' E 002°21'1111.3
2015-Jan-22 07:34N 51°22' E 002°39'1110.8
2015-Jan-22 06:33N 51°23' E 002°56'1211.9
2015-Jan-22 05:32N 51°25' E 003°16'1212.4
2015-Jan-22 04:33N 51°26' E 003°35'9 9.4
2015-Jan-22 03:33N 51°21' E 003°48'4 3.9
2015-Jan-22 02:33N 51°17' E 003°50'7 6.8
2015-Jan-22 01:33N 51°11' E 003°48'6 6.3
2015-Jan-22 00:33N 51°05' E 003°44'0 0.1
2015-Jan-21 23:32N 51°05' E 003°44'0 0.0
2015-Jan-21 22:50N 51°05' E 003°44'0 0.0
2015-Jan-21 22:44N 51°05' E 003°44'0 0.0
2015-Jan-21 22:32N 51°05' E 003°44'0 0.0
2015-Jan-21 21:32N 51°05' E 003°44'0 0.0
2015-Jan-21 20:32N 51°05' E 003°44'0 0.0
2015-Jan-21 19:32N 51°05' E 003°44'0 0.0
2015-Jan-21 18:32N 51°05' E 003°44'0 0.0
2015-Jan-21 17:32N 51°05' E 003°44'0 0.0
2015-Jan-21 16:32N 51°05' E 003°44'0 0.0
2015-Jan-21 15:33N 51°05' E 003°44'0 0.0
2015-Jan-21 14:32N 51°05' E 003°44'0 0.0
2015-Jan-21 13:32N 51°05' E 003°44'0 0.0
2015-Jan-21 12:26N 51°05' E 003°44'0 0.0
2015-Jan-21 11:32N 51°05' E 003°44'0 0.0
2015-Jan-21 10:32N 51°05' E 003°44'0 0.0
2015-Jan-21 09:29N 51°05' E 003°44'0 0.0
2015-Jan-21 08:32N 51°05' E 003°44'0 0.0
2015-Jan-21 07:32N 51°05' E 003°44'0 0.0
2015-Jan-21 06:32N 51°05' E 003°44'0 0.0
2015-Jan-21 05:32N 51°05' E 003°44'0 0.0
2015-Jan-21 04:32N 51°05' E 003°44'0 0.0
2015-Jan-21 03:32N 51°05' E 003°44'0 0.0
2015-Jan-21 02:32N 51°05' E 003°44'0 0.0
2015-Jan-21 01:32N 51°05' E 003°44'0 0.0
2015-Jan-21 00:32N 51°05' E 003°44'0 0.0
2015-Jan-20 23:32N 51°05' E 003°44'0 0.0
2015-Jan-20 22:32N 51°05' E 003°44'0 0.0
2015-Jan-20 21:26N 51°05' E 003°44'0 0.0
2015-Jan-20 20:32N 51°05' E 003°44'0 0.0
2015-Jan-20 19:32N 51°05' E 003°44'0 0.0
2015-Jan-20 18:32N 51°05' E 003°44'0 0.0
2015-Jan-20 17:32N 51°05' E 003°44'0 0.0
2015-Jan-20 16:32N 51°05' E 003°44'0 0.0
2015-Jan-20 15:32N 51°05' E 003°44'0 0.0
2015-Jan-20 14:32N 51°05' E 003°44'1 1.1
2015-Jan-20 13:33N 51°06' E 003°44'5 0.6
2015-Jan-20 05:18N 51°10' E 003°47'0 0.0
2015-Jan-20 04:06N 51°10' E 003°47'0 0.0
2015-Jan-19 22:18N 51°10' E 003°47'0 0.0
2015-Jan-19 09:18N 51°10' E 003°47'0 0.0
2015-Jan-19 06:12N 51°10' E 003°47'0 0.0
2015-Jan-19 05:30N 51°10' E 003°47'0 0.0
2015-Jan-19 04:18N 51°10' E 003°47'0 0.0
2015-Jan-19 03:30N 51°10' E 003°47'0 0.0
2015-Jan-19 02:30N 51°10' E 003°47'0 0.0
2015-Jan-19 01:30N 51°10' E 003°47'0 0.0
2015-Jan-19 00:18N 51°10' E 003°47'  
Track history (hours):
 
Tides and Currents Weather Stations Pressure Air Temp Water Temp Dewpoint Dewpoint Depression Visibility Wind Speed Wind Dir Waves Ship Positions

M/T Filos

Last reported at 2015-Jan-28 23:33 UTC. Time now 2015-Jan-29 00:17 UTC.
Position N 39°46' E 002°22'.

Length 180 m; draft 7.4 m.

Type: Tanker. MMSI: 224561000.

Date/timePositionNaut miles runAvg speedWind from/ knotsBaromVisibWave heightAir tempDewpointWater temp
2015-Jan-28 23:33N 39°46' E 002°22'1211.7
2015-Jan-28 22:33N 39°40' E 002°10'1211.8
2015-Jan-28 21:33N 39°33' E 001°58'1111.2
2015-Jan-28 20:33N 39°26' E 001°46'1111.0
2015-Jan-28 19:33N 39°19' E 001°34'1110.9
2015-Jan-28 18:31N 39°13' E 001°23'9710.8
2015-Jan-28 09:31N 38°04' W 000°05'1210.5
2015-Jan-28 08:23N 37°54' W 000°13'910.0
2015-Jan-28 07:30N 37°47' W 000°19'1010.2
2015-Jan-28 06:33N 37°39' W 000°26'1010.2
2015-Jan-28 05:33N 37°31' W 000°34'1010.2
2015-Jan-28 04:33N 37°24' W 000°44'1010.1
2015-Jan-28 03:33N 37°17' W 000°53'1110.7
2015-Jan-28 02:32N 37°10' W 001°03'1511.8
2015-Jan-28 01:15N 37°00' W 001°18'19611.0
2015-Jan-27 07:28N 36°02' W 005°10'1011.2
2015-Jan-27 06:33N 36°04' W 005°23'7 7.0
2015-Jan-27 05:31N 35°58' W 005°27'15711.2
2015-Jan-26 15:29N 36°22' W 008°40'1111.7
2015-Jan-26 14:33N 36°25' W 008°53'2311.4
2015-Jan-26 12:32N 36°31' W 009°21'3911.3
2015-Jan-26 09:04N 37°06' W 009°43'711.5
2015-Jan-26 08:26N 37°13' W 009°45'1011.3
2015-Jan-26 07:34N 37°22' W 009°48'1211.6
2015-Jan-26 06:33N 37°34' W 009°51'1211.9
2015-Jan-26 05:33N 37°45' W 009°55'1211.9
2015-Jan-26 04:33N 37°57' W 009°58'1211.7
2015-Jan-26 03:32N 38°08' W 010°02'1211.9
2015-Jan-26 02:33N 38°20' W 010°05'1212.1
2015-Jan-26 01:33N 38°32' W 010°08'1212.3
2015-Jan-26 00:34N 38°44' W 010°11'1812.4
2015-Jan-25 23:08N 39°01' W 010°11'  
2015-Jan-22 17:25N 50°32' E 000°17'1113.4
2015-Jan-22 16:34N 50°35' E 000°34'1312.5
2015-Jan-22 15:33N 50°43' E 000°49'1211.2
2015-Jan-22 14:28N 50°51' E 001°04'9 9.7
2015-Jan-22 13:30N 50°58' E 001°14'8 8.5
2015-Jan-22 12:34N 51°03' E 001°24'9 9.5
2015-Jan-22 11:34N 51°09' E 001°36'1111.5
2015-Jan-22 10:34N 51°17' E 001°49'1211.6
2015-Jan-22 09:33N 51°24' E 002°04'1111.0
2015-Jan-22 08:33N 51°21' E 002°21'1111.3
2015-Jan-22 07:34N 51°22' E 002°39'1110.8
2015-Jan-22 06:33N 51°23' E 002°56'1211.9
2015-Jan-22 05:32N 51°25' E 003°16'1212.4
2015-Jan-22 04:33N 51°26' E 003°35'9 9.4
2015-Jan-22 03:33N 51°21' E 003°48'4 3.9
2015-Jan-22 02:33N 51°17' E 003°50'7 6.8
2015-Jan-22 01:33N 51°11' E 003°48'6 6.3
2015-Jan-22 00:33N 51°05' E 003°44'0 0.1
2015-Jan-21 23:32N 51°05' E 003°44'0 0.0
2015-Jan-21 22:50N 51°05' E 003°44'0 0.0
2015-Jan-21 22:44N 51°05' E 003°44'0 0.0
2015-Jan-21 22:32N 51°05' E 003°44'0 0.0
2015-Jan-21 21:32N 51°05' E 003°44'0 0.0
2015-Jan-21 20:32N 51°05' E 003°44'0 0.0
2015-Jan-21 19:32N 51°05' E 003°44'0 0.0
2015-Jan-21 18:32N 51°05' E 003°44'0 0.0
2015-Jan-21 17:32N 51°05' E 003°44'0 0.0
2015-Jan-21 16:32N 51°05' E 003°44'0 0.0
2015-Jan-21 15:33N 51°05' E 003°44'0 0.0
2015-Jan-21 14:32N 51°05' E 003°44'0 0.0
2015-Jan-21 13:32N 51°05' E 003°44'0 0.0
2015-Jan-21 12:26N 51°05' E 003°44'0 0.0
2015-Jan-21 11:32N 51°05' E 003°44'0 0.0
2015-Jan-21 10:32N 51°05' E 003°44'0 0.0
2015-Jan-21 09:29N 51°05' E 003°44'0 0.0
2015-Jan-21 08:32N 51°05' E 003°44'0 0.0
2015-Jan-21 07:32N 51°05' E 003°44'0 0.0
2015-Jan-21 06:32N 51°05' E 003°44'0 0.0
2015-Jan-21 05:32N 51°05' E 003°44'0 0.0
2015-Jan-21 04:32N 51°05' E 003°44'0 0.0
2015-Jan-21 03:32N 51°05' E 003°44'0 0.0
2015-Jan-21 02:32N 51°05' E 003°44'0 0.0
2015-Jan-21 01:32N 51°05' E 003°44'0 0.0
2015-Jan-21 00:32N 51°05' E 003°44'0 0.0
2015-Jan-20 23:32N 51°05' E 003°44'0 0.0
2015-Jan-20 22:32N 51°05' E 003°44'0 0.0
2015-Jan-20 21:26N 51°05' E 003°44'0 0.0
2015-Jan-20 20:32N 51°05' E 003°44'0 0.0
2015-Jan-20 19:32N 51°05' E 003°44'0 0.0
2015-Jan-20 18:32N 51°05' E 003°44'0 0.0
2015-Jan-20 17:32N 51°05' E 003°44'0 0.0
2015-Jan-20 16:32N 51°05' E 003°44'0 0.0
2015-Jan-20 15:32N 51°05' E 003°44'0 0.0
2015-Jan-20 14:32N 51°05' E 003°44'1 1.1
2015-Jan-20 13:33N 51°06' E 003°44'5 0.6
2015-Jan-20 05:18N 51°10' E 003°47'0 0.0
2015-Jan-20 04:06N 51°10' E 003°47'0 0.0
2015-Jan-19 22:18N 51°10' E 003°47'0 0.0
2015-Jan-19 09:18N 51°10' E 003°47'0 0.0
2015-Jan-19 06:12N 51°10' E 003°47'0 0.0
2015-Jan-19 05:30N 51°10' E 003°47'0 0.0
2015-Jan-19 04:18N 51°10' E 003°47'0 0.0
2015-Jan-19 03:30N 51°10' E 003°47'0 0.0
2015-Jan-19 02:30N 51°10' E 003°47'0 0.0
2015-Jan-19 01:30N 51°10' E 003°47'0 0.0
2015-Jan-19 00:18N 51°10' E 003°47'  

Dump ship's entire track history